sensor_id;sensor_type;location;lat;lon;timestamp;pressure;altitude;pressure_sealevel;temperature;humidity
46408;BME280;32110;45.724;21.276;2022-07-23T00:04:49;100443.16;;;22.26;nan
46408;BME280;32110;45.724;21.276;2022-07-23T00:07:15;100504.06;;;22.25;nan
46408;BME280;32110;45.724;21.276;2022-07-23T00:09:40;100440.41;;;22.17;nan
46408;BME280;32110;45.724;21.276;2022-07-23T00:12:06;100408.13;;;22.08;nan
46408;BME280;32110;45.724;21.276;2022-07-23T00:14:31;100460.53;;;22.15;nan
46408;BME280;32110;45.724;21.276;2022-07-23T00:16:57;100394.50;;;22.05;nan
46408;BME280;32110;45.724;21.276;2022-07-23T00:19:22;100407.00;;;22.09;nan
46408;BME280;32110;45.724;21.276;2022-07-23T00:21:48;100433.94;;;22.04;nan
46408;BME280;32110;45.724;21.276;2022-07-23T00:24:13;100431.38;;;21.99;nan
46408;BME280;32110;45.724;21.276;2022-07-23T00:26:38;100384.63;;;21.92;nan
46408;BME280;32110;45.724;21.276;2022-07-23T00:29:04;100427.50;;;21.92;nan
46408;BME280;32110;45.724;21.276;2022-07-23T00:31:29;100422.25;;;21.86;nan
46408;BME280;32110;45.724;21.276;2022-07-23T00:33:55;100423.44;;;21.80;nan
46408;BME280;32110;45.724;21.276;2022-07-23T00:36:26;100431.59;;;21.75;nan
46408;BME280;32110;45.724;21.276;2022-07-23T00:41:17;100426.13;;;21.66;nan
46408;BME280;32110;45.724;21.276;2022-07-23T00:43:42;100384.16;;;21.62;nan
46408;BME280;32110;45.724;21.276;2022-07-23T00:46:08;100457.19;;;21.54;nan
46408;BME280;32110;45.724;21.276;2022-07-23T00:48:33;100467.00;;;21.44;nan
46408;BME280;32110;45.724;21.276;2022-07-23T00:50:59;100393.75;;;21.35;nan
46408;BME280;32110;45.724;21.276;2022-07-23T00:53:24;100412.31;;;21.32;nan
46408;BME280;32110;45.724;21.276;2022-07-23T00:55:50;100414.50;;;21.30;nan
46408;BME280;32110;45.724;21.276;2022-07-23T00:58:16;100389.97;;;21.22;nan
46408;BME280;32110;45.724;21.276;2022-07-23T01:00:42;100406.94;;;21.18;nan
46408;BME280;32110;45.724;21.276;2022-07-23T01:03:07;100373.00;;;21.13;nan
46408;BME280;32110;45.724;21.276;2022-07-23T01:05:33;100401.97;;;21.11;nan
46408;BME280;32110;45.724;21.276;2022-07-23T01:07:59;100415.66;;;21.10;nan
46408;BME280;32110;45.724;21.276;2022-07-23T01:10:24;100433.91;;;21.08;nan
46408;BME280;32110;45.724;21.276;2022-07-23T01:15:29;100400.56;;;21.00;nan
46408;BME280;32110;45.724;21.276;2022-07-23T01:17:55;100452.88;;;20.92;nan
46408;BME280;32110;45.724;21.276;2022-07-23T01:20:21;100420.84;;;20.87;nan
46408;BME280;32110;45.724;21.276;2022-07-23T01:22:46;100423.84;;;20.86;nan
46408;BME280;32110;45.724;21.276;2022-07-23T01:25:12;100423.88;;;20.80;nan
46408;BME280;32110;45.724;21.276;2022-07-23T01:27:37;100405.25;;;20.75;nan
46408;BME280;32110;45.724;21.276;2022-07-23T01:30:03;100401.34;;;20.68;nan
46408;BME280;32110;45.724;21.276;2022-07-23T01:32:29;100576.47;;;20.62;nan
46408;BME280;32110;45.724;21.276;2022-07-23T01:34:55;100408.97;;;20.60;nan
46408;BME280;32110;45.724;21.276;2022-07-23T01:37:20;100406.56;;;20.59;nan
46408;BME280;32110;45.724;21.276;2022-07-23T01:39:46;100421.84;;;20.58;nan
46408;BME280;32110;45.724;21.276;2022-07-23T01:42:11;100426.16;;;20.54;nan
46408;BME280;32110;45.724;21.276;2022-07-23T01:44:36;100474.59;;;20.53;nan
46408;BME280;32110;45.724;21.276;2022-07-23T01:47:02;100416.91;;;20.47;nan
46408;BME280;32110;45.724;21.276;2022-07-23T01:49:28;100413.28;;;20.37;nan
46408;BME280;32110;45.724;21.276;2022-07-23T01:51:53;100409.91;;;20.32;nan
46408;BME280;32110;45.724;21.276;2022-07-23T01:54:26;100423.53;;;20.30;nan
46408;BME280;32110;45.724;21.276;2022-07-23T01:56:51;100422.56;;;20.26;nan
46408;BME280;32110;45.724;21.276;2022-07-23T01:59:16;100477.69;;;20.22;nan
46408;BME280;32110;45.724;21.276;2022-07-23T02:01:42;100425.06;;;20.17;nan
46408;BME280;32110;45.724;21.276;2022-07-23T02:04:07;100390.47;;;20.07;nan
46408;BME280;32110;45.724;21.276;2022-07-23T02:06:33;100431.34;;;20.08;nan
46408;BME280;32110;45.724;21.276;2022-07-23T02:08:58;100424.19;;;20.03;nan
46408;BME280;32110;45.724;21.276;2022-07-23T02:11:23;100408.81;;;19.95;nan
46408;BME280;32110;45.724;21.276;2022-07-23T02:13:49;100394.41;;;19.91;nan
46408;BME280;32110;45.724;21.276;2022-07-23T02:16:14;100425.19;;;19.88;nan
46408;BME280;32110;45.724;21.276;2022-07-23T02:18:40;100415.34;;;19.84;nan
46408;BME280;32110;45.724;21.276;2022-07-23T02:21:05;100400.09;;;19.84;nan
46408;BME280;32110;45.724;21.276;2022-07-23T02:23:31;100421.78;;;19.83;nan
46408;BME280;32110;45.724;21.276;2022-07-23T02:25:56;100427.41;;;19.81;nan
46408;BME280;32110;45.724;21.276;2022-07-23T02:28:22;100419.66;;;19.80;nan
46408;BME280;32110;45.724;21.276;2022-07-23T02:35:38;100392.22;;;19.50;nan
46408;BME280;32110;45.724;21.276;2022-07-23T02:38:03;100433.31;;;19.54;nan
46408;BME280;32110;45.724;21.276;2022-07-23T02:40:29;100445.00;;;19.58;nan
46408;BME280;32110;45.724;21.276;2022-07-23T02:42:54;100437.50;;;19.60;nan
46408;BME280;32110;45.724;21.276;2022-07-23T02:45:19;100433.25;;;19.59;nan
46408;BME280;32110;45.724;21.276;2022-07-23T02:47:45;100393.44;;;19.58;nan
46408;BME280;32110;45.724;21.276;2022-07-23T02:50:10;100433.31;;;19.54;nan
46408;BME280;32110;45.724;21.276;2022-07-23T02:52:37;100445.56;;;19.55;nan
46408;BME280;32110;45.724;21.276;2022-07-23T02:55:03;100445.84;;;19.53;nan
46408;BME280;32110;45.724;21.276;2022-07-23T02:57:29;100442.09;;;19.54;nan
46408;BME280;32110;45.724;21.276;2022-07-23T02:59:54;100491.34;;;19.43;nan
46408;BME280;32110;45.724;21.276;2022-07-23T03:02:20;100446.22;;;19.42;nan
46408;BME280;32110;45.724;21.276;2022-07-23T03:04:45;100455.91;;;19.38;nan
46408;BME280;32110;45.724;21.276;2022-07-23T03:07:11;100455.72;;;19.29;nan
46408;BME280;32110;45.724;21.276;2022-07-23T03:09:36;100444.75;;;19.30;nan
46408;BME280;32110;45.724;21.276;2022-07-23T03:12:02;100446.34;;;19.31;nan
46408;BME280;32110;45.724;21.276;2022-07-23T03:14:27;100490.41;;;19.29;nan
46408;BME280;32110;45.724;21.276;2022-07-23T03:16:53;100450.09;;;19.30;nan
46408;BME280;32110;45.724;21.276;2022-07-23T03:19:19;100490.16;;;19.30;nan
46408;BME280;32110;45.724;21.276;2022-07-23T03:21:45;100472.25;;;19.31;nan
46408;BME280;32110;45.724;21.276;2022-07-23T03:24:10;100460.47;;;19.32;nan
46408;BME280;32110;45.724;21.276;2022-07-23T03:26:36;100450.41;;;19.24;nan
46408;BME280;32110;45.724;21.276;2022-07-23T03:29:02;100429.59;;;19.26;nan
46408;BME280;32110;45.724;21.276;2022-07-23T03:31:29;100471.78;;;19.24;nan
46408;BME280;32110;45.724;21.276;2022-07-23T03:33:56;100445.94;;;19.19;nan
46408;BME280;32110;45.724;21.276;2022-07-23T03:36:21;100475.03;;;19.21;nan
46408;BME280;32110;45.724;21.276;2022-07-23T03:38:47;100481.72;;;19.18;nan
46408;BME280;32110;45.724;21.276;2022-07-23T03:41:12;100478.00;;;19.14;nan
46408;BME280;32110;45.724;21.276;2022-07-23T03:43:38;100477.75;;;19.16;nan
46408;BME280;32110;45.724;21.276;2022-07-23T03:46:03;100476.44;;;19.13;nan
46408;BME280;32110;45.724;21.276;2022-07-23T03:48:29;100486.59;;;19.11;nan
46408;BME280;32110;45.724;21.276;2022-07-23T03:50:54;100490.31;;;19.10;nan
46408;BME280;32110;45.724;21.276;2022-07-23T03:55:45;100500.19;;;19.09;nan
46408;BME280;32110;45.724;21.276;2022-07-23T03:58:10;100496.72;;;19.09;nan
46408;BME280;32110;45.724;21.276;2022-07-23T04:00:36;100472.28;;;18.97;nan
46408;BME280;32110;45.724;21.276;2022-07-23T04:03:01;100543.28;;;18.92;nan
46408;BME280;32110;45.724;21.276;2022-07-23T04:05:27;100485.16;;;18.89;nan
46408;BME280;32110;45.724;21.276;2022-07-23T04:07:52;100483.84;;;18.82;nan
46408;BME280;32110;45.724;21.276;2022-07-23T04:10:18;100479.06;;;18.74;nan
46408;BME280;32110;45.724;21.276;2022-07-23T04:15:09;100472.69;;;18.80;nan
46408;BME280;32110;45.724;21.276;2022-07-23T04:17:34;100480.91;;;18.83;nan
46408;BME280;32110;45.724;21.276;2022-07-23T04:20:00;100484.31;;;18.89;nan
46408;BME280;32110;45.724;21.276;2022-07-23T04:27:16;100476.59;;;19.22;nan
46408;BME280;32110;45.724;21.276;2022-07-23T04:29:41;100469.78;;;19.34;nan
46408;BME280;32110;45.724;21.276;2022-07-23T04:32:07;100489.72;;;19.47;nan
46408;BME280;32110;45.724;21.276;2022-07-23T04:39:23;100528.22;;;19.75;nan
46408;BME280;32110;45.724;21.276;2022-07-23T04:41:48;100490.91;;;19.89;nan
46408;BME280;32110;45.724;21.276;2022-07-23T04:44:13;100461.94;;;19.96;nan
46408;BME280;32110;45.724;21.276;2022-07-23T04:46:39;100488.28;;;20.08;nan
46408;BME280;32110;45.724;21.276;2022-07-23T04:49:04;100545.97;;;20.14;nan
46408;BME280;32110;45.724;21.276;2022-07-23T04:51:30;100467.72;;;20.28;nan
46408;BME280;32110;45.724;21.276;2022-07-23T04:53:55;100471.13;;;20.33;nan
46408;BME280;32110;45.724;21.276;2022-07-23T04:56:21;100477.03;;;20.49;nan
46408;BME280;32110;45.724;21.276;2022-07-23T04:58:46;100517.16;;;20.49;nan
46408;BME280;32110;45.724;21.276;2022-07-23T05:01:12;100487.06;;;20.63;nan
46408;BME280;32110;45.724;21.276;2022-07-23T05:03:37;100481.56;;;20.73;nan
46408;BME280;32110;45.724;21.276;2022-07-23T05:08:28;100455.56;;;20.92;nan
46408;BME280;32110;45.724;21.276;2022-07-23T05:10:54;100482.66;;;21.04;nan
46408;BME280;32110;45.724;21.276;2022-07-23T05:13:20;100473.75;;;21.09;nan
46408;BME280;32110;45.724;21.276;2022-07-23T05:15:45;100484.22;;;21.24;nan
46408;BME280;32110;45.724;21.276;2022-07-23T05:18:11;100463.09;;;21.37;nan
46408;BME280;32110;45.724;21.276;2022-07-23T05:20:37;100437.94;;;21.52;nan
46408;BME280;32110;45.724;21.276;2022-07-23T05:23:02;100450.34;;;21.61;nan
46408;BME280;32110;45.724;21.276;2022-07-23T05:25:28;100464.38;;;21.72;nan
46408;BME280;32110;45.724;21.276;2022-07-23T05:27:54;100458.50;;;21.84;nan
46408;BME280;32110;45.724;21.276;2022-07-23T05:30:19;100434.34;;;21.98;nan
46408;BME280;32110;45.724;21.276;2022-07-23T05:32:44;100394.03;;;22.03;nan
46408;BME280;32110;45.724;21.276;2022-07-23T05:35:10;100479.44;;;22.23;nan
46408;BME280;32110;45.724;21.276;2022-07-23T05:37:36;100493.63;;;22.38;nan
46408;BME280;32110;45.724;21.276;2022-07-23T05:42:33;100454.91;;;22.52;nan
46408;BME280;32110;45.724;21.276;2022-07-23T05:44:58;100490.75;;;22.70;nan
46408;BME280;32110;45.724;21.276;2022-07-23T05:47:24;100457.00;;;22.78;nan
46408;BME280;32110;45.724;21.276;2022-07-23T05:49:49;100453.53;;;23.00;nan
46408;BME280;32110;45.724;21.276;2022-07-23T05:52:15;100468.00;;;23.13;nan
46408;BME280;32110;45.724;21.276;2022-07-23T05:54:40;100479.13;;;23.29;nan
46408;BME280;32110;45.724;21.276;2022-07-23T05:57:06;100455.03;;;23.46;nan
46408;BME280;32110;45.724;21.276;2022-07-23T05:59:32;100475.66;;;23.60;nan
46408;BME280;32110;45.724;21.276;2022-07-23T06:01:57;100468.56;;;23.72;nan
46408;BME280;32110;45.724;21.276;2022-07-23T06:04:23;100479.25;;;23.86;nan
46408;BME280;32110;45.724;21.276;2022-07-23T06:09:13;100477.06;;;24.06;nan
46408;BME280;32110;45.724;21.276;2022-07-23T06:11:40;100473.00;;;24.26;nan
46408;BME280;32110;45.724;21.276;2022-07-23T06:18:56;100459.13;;;24.50;nan
46408;BME280;32110;45.724;21.276;2022-07-23T06:21:22;100475.91;;;24.64;nan
46408;BME280;32110;45.724;21.276;2022-07-23T06:23:47;100477.47;;;24.65;nan
46408;BME280;32110;45.724;21.276;2022-07-23T06:26:12;100479.97;;;24.88;nan
46408;BME280;32110;45.724;21.276;2022-07-23T06:28:38;100468.41;;;25.04;nan
46408;BME280;32110;45.724;21.276;2022-07-23T06:31:03;100480.41;;;25.16;nan
46408;BME280;32110;45.724;21.276;2022-07-23T06:33:29;100476.59;;;25.34;nan
46408;BME280;32110;45.724;21.276;2022-07-23T06:35:54;100474.31;;;25.45;nan
46408;BME280;32110;45.724;21.276;2022-07-23T06:38:19;100487.59;;;25.59;nan
46408;BME280;32110;45.724;21.276;2022-07-23T06:40:45;100458.00;;;25.71;nan
46408;BME280;32110;45.724;21.276;2022-07-23T06:43:10;100484.59;;;25.90;nan
46408;BME280;32110;45.724;21.276;2022-07-23T06:45:36;100482.00;;;26.02;nan
46408;BME280;32110;45.724;21.276;2022-07-23T06:48:01;100464.03;;;26.06;nan
46408;BME280;32110;45.724;21.276;2022-07-23T06:50:28;100479.56;;;26.09;nan
46408;BME280;32110;45.724;21.276;2022-07-23T06:52:54;100514.59;;;26.18;nan
46408;BME280;32110;45.724;21.276;2022-07-23T06:55:19;100464.16;;;26.31;nan
46408;BME280;32110;45.724;21.276;2022-07-23T06:57:44;100457.72;;;26.44;nan
46408;BME280;32110;45.724;21.276;2022-07-23T07:00:10;100468.59;;;26.57;nan
46408;BME280;32110;45.724;21.276;2022-07-23T07:02:36;100476.56;;;26.74;nan
46408;BME280;32110;45.724;21.276;2022-07-23T07:05:02;100479.28;;;26.86;nan
46408;BME280;32110;45.724;21.276;2022-07-23T07:07:27;100463.13;;;26.99;nan
46408;BME280;32110;45.724;21.276;2022-07-23T07:09:53;100478.28;;;27.24;nan
46408;BME280;32110;45.724;21.276;2022-07-23T07:12:18;100475.59;;;27.24;nan
46408;BME280;32110;45.724;21.276;2022-07-23T07:14:44;100523.72;;;27.31;nan
46408;BME280;32110;45.724;21.276;2022-07-23T07:17:09;100462.53;;;27.39;nan
46408;BME280;32110;45.724;21.276;2022-07-23T07:19:36;100473.81;;;27.53;nan
46408;BME280;32110;45.724;21.276;2022-07-23T07:22:02;100470.22;;;27.61;nan
46408;BME280;32110;45.724;21.276;2022-07-23T07:26:52;100457.38;;;27.95;nan
46408;BME280;32110;45.724;21.276;2022-07-23T07:31:43;100474.25;;;28.16;nan
46408;BME280;32110;45.724;21.276;2022-07-23T07:34:09;100478.84;;;28.28;nan
46408;BME280;32110;45.724;21.276;2022-07-23T07:36:35;100501.06;;;28.34;nan
46408;BME280;32110;45.724;21.276;2022-07-23T07:39:03;100467.97;;;28.40;nan
46408;BME280;32110;45.724;21.276;2022-07-23T07:41:30;100504.88;;;28.45;nan
46408;BME280;32110;45.724;21.276;2022-07-23T07:43:55;100489.00;;;28.72;nan
46408;BME280;32110;45.724;21.276;2022-07-23T07:46:20;100481.66;;;28.72;nan
46408;BME280;32110;45.724;21.276;2022-07-23T07:48:49;100474.94;;;28.82;nan
46408;BME280;32110;45.724;21.276;2022-07-23T07:51:15;100458.28;;;28.96;nan
46408;BME280;32110;45.724;21.276;2022-07-23T07:53:40;100478.22;;;29.03;nan
46408;BME280;32110;45.724;21.276;2022-07-23T07:56:06;100488.56;;;29.14;nan
46408;BME280;32110;45.724;21.276;2022-07-23T07:58:31;100480.28;;;29.22;nan
46408;BME280;32110;45.724;21.276;2022-07-23T08:00:57;100474.69;;;29.31;nan
46408;BME280;32110;45.724;21.276;2022-07-23T08:03:22;100490.50;;;29.45;nan
46408;BME280;32110;45.724;21.276;2022-07-23T08:05:47;100425.22;;;29.54;nan
46408;BME280;32110;45.724;21.276;2022-07-23T08:08:13;100484.16;;;29.69;nan
46408;BME280;32110;45.724;21.276;2022-07-23T08:10:41;100440.59;;;29.81;nan
46408;BME280;32110;45.724;21.276;2022-07-23T08:13:15;100471.91;;;29.95;nan
46408;BME280;32110;45.724;21.276;2022-07-23T08:15:42;100468.38;;;30.10;nan
46408;BME280;32110;45.724;21.276;2022-07-23T08:18:07;100486.88;;;30.24;nan
46408;BME280;32110;45.724;21.276;2022-07-23T08:20:33;100478.66;;;30.36;nan
46408;BME280;32110;45.724;21.276;2022-07-23T08:23:03;100438.03;;;30.43;nan
46408;BME280;32110;45.724;21.276;2022-07-23T08:25:34;100476.41;;;30.61;nan
46408;BME280;32110;45.724;21.276;2022-07-23T08:28:02;100471.88;;;30.69;nan
46408;BME280;32110;45.724;21.276;2022-07-23T08:30:28;100508.56;;;30.79;nan
46408;BME280;32110;45.724;21.276;2022-07-23T08:32:56;100486.78;;;30.94;nan
46408;BME280;32110;45.724;21.276;2022-07-23T08:35:42;100473.34;;;31.05;nan
46408;BME280;32110;45.724;21.276;2022-07-23T08:38:11;100460.13;;;31.04;nan
46408;BME280;32110;45.724;21.276;2022-07-23T08:40:45;100447.97;;;31.21;nan
46408;BME280;32110;45.724;21.276;2022-07-23T08:43:13;100401.09;;;31.31;nan
46408;BME280;32110;45.724;21.276;2022-07-23T08:45:43;100459.56;;;31.41;nan
46408;BME280;32110;45.724;21.276;2022-07-23T08:48:15;100458.94;;;31.51;nan
46408;BME280;32110;45.724;21.276;2022-07-23T08:50:49;100446.16;;;31.51;nan
46408;BME280;32110;45.724;21.276;2022-07-23T08:53:16;100493.13;;;31.75;nan
46408;BME280;32110;45.724;21.276;2022-07-23T08:55:45;100489.28;;;31.76;nan
46408;BME280;32110;45.724;21.276;2022-07-23T08:58:12;100471.09;;;31.84;nan
46408;BME280;32110;45.724;21.276;2022-07-23T09:00:37;100451.78;;;31.92;nan
46408;BME280;32110;45.724;21.276;2022-07-23T09:03:03;100464.88;;;32.10;nan
46408;BME280;32110;45.724;21.276;2022-07-23T09:05:28;100433.81;;;32.18;nan
46408;BME280;32110;45.724;21.276;2022-07-23T09:10:28;100441.19;;;32.48;nan
46408;BME280;32110;45.724;21.276;2022-07-23T09:12:54;100448.31;;;32.56;nan
46408;BME280;32110;45.724;21.276;2022-07-23T09:15:19;100458.47;;;32.59;nan
46408;BME280;32110;45.724;21.276;2022-07-23T09:17:44;100447.22;;;32.64;nan
46408;BME280;32110;45.724;21.276;2022-07-23T09:20:15;100446.63;;;32.81;nan
46408;BME280;32110;45.724;21.276;2022-07-23T09:22:45;100448.63;;;32.88;nan
46408;BME280;32110;45.724;21.276;2022-07-23T09:25:14;100458.56;;;33.07;nan
46408;BME280;32110;45.724;21.276;2022-07-23T09:27:59;100425.06;;;33.10;nan
46408;BME280;32110;45.724;21.276;2022-07-23T09:30:29;100422.75;;;33.16;nan
46408;BME280;32110;45.724;21.276;2022-07-23T09:35:50;100429.56;;;33.40;nan
46408;BME280;32110;45.724;21.276;2022-07-23T09:38:18;100459.22;;;33.41;nan
46408;BME280;32110;45.724;21.276;2022-07-23T09:40:45;100430.47;;;33.55;nan
46408;BME280;32110;45.724;21.276;2022-07-23T09:43:12;100416.06;;;33.61;nan
46408;BME280;32110;45.724;21.276;2022-07-23T09:45:37;100416.47;;;33.63;nan
46408;BME280;32110;45.724;21.276;2022-07-23T09:48:13;100453.19;;;33.70;nan
46408;BME280;32110;45.724;21.276;2022-07-23T09:50:40;100420.88;;;33.82;nan
46408;BME280;32110;45.724;21.276;2022-07-23T09:53:06;100432.59;;;33.90;nan
46408;BME280;32110;45.724;21.276;2022-07-23T09:55:33;100395.56;;;34.00;nan
46408;BME280;32110;45.724;21.276;2022-07-23T09:58:04;100397.94;;;34.01;nan
46408;BME280;32110;45.724;21.276;2022-07-23T10:00:31;100405.81;;;34.14;nan
46408;BME280;32110;45.724;21.276;2022-07-23T10:02:58;100389.44;;;34.21;nan
46408;BME280;32110;45.724;21.276;2022-07-23T10:05:25;100401.19;;;34.36;nan
46408;BME280;32110;45.724;21.276;2022-07-23T10:07:51;100398.06;;;34.48;nan
46408;BME280;32110;45.724;21.276;2022-07-23T10:10:17;100410.97;;;34.55;nan
46408;BME280;32110;45.724;21.276;2022-07-23T10:12:46;100454.38;;;34.60;nan
46408;BME280;32110;45.724;21.276;2022-07-23T10:15:12;100382.91;;;34.65;nan
46408;BME280;32110;45.724;21.276;2022-07-23T10:17:37;100429.41;;;34.72;nan
46408;BME280;32110;45.724;21.276;2022-07-23T10:20:04;100384.84;;;34.79;nan
46408;BME280;32110;45.724;21.276;2022-07-23T10:40:34;100311.72;;;35.22;nan
46408;BME280;32110;45.724;21.276;2022-07-23T10:43:00;100408.69;;;35.28;nan
46408;BME280;32110;45.724;21.276;2022-07-23T10:45:34;100348.84;;;35.38;nan
46408;BME280;32110;45.724;21.276;2022-07-23T10:48:17;100380.09;;;35.47;nan
46408;BME280;32110;45.724;21.276;2022-07-23T10:50:43;100345.25;;;35.55;nan
46408;BME280;32110;45.724;21.276;2022-07-23T10:53:10;100335.06;;;35.63;nan
46408;BME280;32110;45.724;21.276;2022-07-23T10:58:10;100333.50;;;35.65;nan
46408;BME280;32110;45.724;21.276;2022-07-23T11:00:36;100354.59;;;35.75;nan
46408;BME280;32110;45.724;21.276;2022-07-23T11:03:04;100345.19;;;35.80;nan
46408;BME280;32110;45.724;21.276;2022-07-23T11:05:42;100334.16;;;35.91;nan
46408;BME280;32110;45.724;21.276;2022-07-23T11:16:22;100323.88;;;36.06;nan
46408;BME280;32110;45.724;21.276;2022-07-23T11:24:00;100332.81;;;36.28;nan
46408;BME280;32110;45.724;21.276;2022-07-23T11:26:43;100333.88;;;36.41;nan
46408;BME280;32110;45.724;21.276;2022-07-23T11:34:42;100328.63;;;36.61;nan
46408;BME280;32110;45.724;21.276;2022-07-23T11:37:11;100266.75;;;36.60;nan
46408;BME280;32110;45.724;21.276;2022-07-23T11:39:37;100326.31;;;36.59;nan
46408;BME280;32110;45.724;21.276;2022-07-23T11:42:05;100324.34;;;36.60;nan
46408;BME280;32110;45.724;21.276;2022-07-23T11:44:33;100315.28;;;36.63;nan
46408;BME280;32110;45.724;21.276;2022-07-23T11:47:01;100317.97;;;36.74;nan
46408;BME280;32110;45.724;21.276;2022-07-23T11:49:27;100309.66;;;36.81;nan
46408;BME280;32110;45.724;21.276;2022-07-23T11:52:10;100295.44;;;36.90;nan
46408;BME280;32110;45.724;21.276;2022-07-23T11:57:14;100285.22;;;36.94;nan
46408;BME280;32110;45.724;21.276;2022-07-23T11:59:40;100292.19;;;37.02;nan
46408;BME280;32110;45.724;21.276;2022-07-23T12:02:07;100340.38;;;37.10;nan
46408;BME280;32110;45.724;21.276;2022-07-23T12:04:44;100274.78;;;37.19;nan
46408;BME280;32110;45.724;21.276;2022-07-23T12:09:55;100322.44;;;37.36;nan
46408;BME280;32110;45.724;21.276;2022-07-23T12:12:21;100291.75;;;37.41;nan
46408;BME280;32110;45.724;21.276;2022-07-23T12:14:57;100288.56;;;37.46;nan
46408;BME280;32110;45.724;21.276;2022-07-23T12:17:32;100293.59;;;37.55;nan
46408;BME280;32110;45.724;21.276;2022-07-23T12:19:59;100297.03;;;37.59;nan
46408;BME280;32110;45.724;21.276;2022-07-23T12:22:26;100279.78;;;37.59;nan
46408;BME280;32110;45.724;21.276;2022-07-23T12:25:05;100232.31;;;37.58;nan
46408;BME280;32110;45.724;21.276;2022-07-23T12:27:31;100327.28;;;37.59;nan
46408;BME280;32110;45.724;21.276;2022-07-23T12:29:57;100253.09;;;37.59;nan
46408;BME280;32110;45.724;21.276;2022-07-23T12:32:26;100238.56;;;37.59;nan
46408;BME280;32110;45.724;21.276;2022-07-23T12:35:04;100262.91;;;37.60;nan
46408;BME280;32110;45.724;21.276;2022-07-23T12:37:32;100247.69;;;37.52;nan
46408;BME280;32110;45.724;21.276;2022-07-23T12:39:58;100260.16;;;37.60;nan
46408;BME280;32110;45.724;21.276;2022-07-23T12:42:42;100252.97;;;37.66;nan
46408;BME280;32110;45.724;21.276;2022-07-23T12:45:10;100253.31;;;37.72;nan
46408;BME280;32110;45.724;21.276;2022-07-23T12:53:17;100238.47;;;37.93;nan
46408;BME280;32110;45.724;21.276;2022-07-23T12:55:45;100237.22;;;37.98;nan
46408;BME280;32110;45.724;21.276;2022-07-23T12:58:16;100230.50;;;38.02;nan
46408;BME280;32110;45.724;21.276;2022-07-23T13:03:26;100237.38;;;38.14;nan
46408;BME280;32110;45.724;21.276;2022-07-23T13:05:52;100173.00;;;38.12;nan
46408;BME280;32110;45.724;21.276;2022-07-23T13:08:17;100225.06;;;38.22;nan
46408;BME280;32110;45.724;21.276;2022-07-23T13:10:43;100239.66;;;38.19;nan
46408;BME280;32110;45.724;21.276;2022-07-23T13:13:12;100221.13;;;38.23;nan
46408;BME280;32110;45.724;21.276;2022-07-23T13:15:38;100222.25;;;38.26;nan
46408;BME280;32110;45.724;21.276;2022-07-23T13:18:03;100227.34;;;38.27;nan
46408;BME280;32110;45.724;21.276;2022-07-23T13:20:29;100214.06;;;38.22;nan
46408;BME280;32110;45.724;21.276;2022-07-23T13:22:57;100216.25;;;38.31;nan
46408;BME280;32110;45.724;21.276;2022-07-23T13:25:23;100260.63;;;38.33;nan
46408;BME280;32110;45.724;21.276;2022-07-23T13:27:48;100214.19;;;38.39;nan
46408;BME280;32110;45.724;21.276;2022-07-23T13:30:13;100197.38;;;38.33;nan
46408;BME280;32110;45.724;21.276;2022-07-23T13:32:40;100219.16;;;38.47;nan
46408;BME280;32110;45.724;21.276;2022-07-23T13:35:06;100210.84;;;38.51;nan
46408;BME280;32110;45.724;21.276;2022-07-23T13:37:31;100199.59;;;38.42;nan
46408;BME280;32110;45.724;21.276;2022-07-23T13:39:57;100203.09;;;38.46;nan
46408;BME280;32110;45.724;21.276;2022-07-23T13:42:22;100198.22;;;38.54;nan
46408;BME280;32110;45.724;21.276;2022-07-23T13:44:47;100192.63;;;38.57;nan
46408;BME280;32110;45.724;21.276;2022-07-23T13:47:13;100206.34;;;38.61;nan
46408;BME280;32110;45.724;21.276;2022-07-23T13:49:38;100183.06;;;38.65;nan
46408;BME280;32110;45.724;21.276;2022-07-23T13:52:04;100197.22;;;38.64;nan
46408;BME280;32110;45.724;21.276;2022-07-23T13:54:29;100179.94;;;38.63;nan
46408;BME280;32110;45.724;21.276;2022-07-23T13:56:55;100233.38;;;38.66;nan
46408;BME280;32110;45.724;21.276;2022-07-23T13:59:21;100186.16;;;38.67;nan
46408;BME280;32110;45.724;21.276;2022-07-23T14:01:47;100181.00;;;38.69;nan
46408;BME280;32110;45.724;21.276;2022-07-23T14:04:12;100198.34;;;38.66;nan
46408;BME280;32110;45.724;21.276;2022-07-23T14:06:37;100175.16;;;38.67;nan
46408;BME280;32110;45.724;21.276;2022-07-23T14:09:03;100177.19;;;38.63;nan
46408;BME280;32110;45.724;21.276;2022-07-23T14:11:28;100186.94;;;38.68;nan
46408;BME280;32110;45.724;21.276;2022-07-23T14:13:56;100189.25;;;38.69;nan
46408;BME280;32110;45.724;21.276;2022-07-23T14:16:22;100153.91;;;38.68;nan
46408;BME280;32110;45.724;21.276;2022-07-23T14:18:48;100180.22;;;38.69;nan
46408;BME280;32110;45.724;21.276;2022-07-23T14:21:13;100157.06;;;38.66;nan
46408;BME280;32110;45.724;21.276;2022-07-23T14:23:39;100166.53;;;38.65;nan
46408;BME280;32110;45.724;21.276;2022-07-23T14:26:04;100161.41;;;38.67;nan
46408;BME280;32110;45.724;21.276;2022-07-23T14:28:31;100189.25;;;38.69;nan
46408;BME280;32110;45.724;21.276;2022-07-23T14:30:57;100171.81;;;38.76;nan
46408;BME280;32110;45.724;21.276;2022-07-23T14:33:22;100149.03;;;38.76;nan
46408;BME280;32110;45.724;21.276;2022-07-23T14:35:48;100147.06;;;38.76;nan
46408;BME280;32110;45.724;21.276;2022-07-23T14:38:13;100157.28;;;38.76;nan
46408;BME280;32110;45.724;21.276;2022-07-23T14:40:38;100162.03;;;38.75;nan